sensor_id;sensor_type;location;lat;lon;timestamp;pressure;altitude;pressure_sealevel;temperature;humidity
64095;BME280;50353;51.420;5.682;2023-02-02T00:01:19;101880.81;;;7.96;88.47
64095;BME280;50353;51.420;5.682;2023-02-02T00:03:45;101875.47;;;7.99;89.12
64095;BME280;50353;51.420;5.682;2023-02-02T00:06:11;101879.47;;;8.11;88.05
64095;BME280;50353;51.420;5.682;2023-02-02T00:08:36;101879.81;;;8.54;86.88
64095;BME280;50353;51.420;5.682;2023-02-02T00:11:04;101873.16;;;8.17;88.89
64095;BME280;50353;51.420;5.682;2023-02-02T00:13:29;101868.94;;;7.84;90.21
64095;BME280;50353;51.420;5.682;2023-02-02T00:15:54;101867.16;;;8.11;90.73
64095;BME280;50353;51.420;5.682;2023-02-02T00:18:20;101859.03;;;8.18;90.14
64095;BME280;50353;51.420;5.682;2023-02-02T00:20:45;101869.59;;;8.18;90.02
64095;BME280;50353;51.420;5.682;2023-02-02T00:23:13;101860.66;;;8.22;90.09
64095;BME280;50353;51.420;5.682;2023-02-02T00:25:38;101860.47;;;8.28;89.00
64095;BME280;50353;51.420;5.682;2023-02-02T00:28:04;101856.50;;;8.41;88.82
64095;BME280;50353;51.420;5.682;2023-02-02T00:30:30;101853.41;;;8.03;90.48
64095;BME280;50353;51.420;5.682;2023-02-02T00:32:55;101863.47;;;8.42;89.10
64095;BME280;50353;51.420;5.682;2023-02-02T00:35:21;101861.00;;;8.38;88.69
64095;BME280;50353;51.420;5.682;2023-02-02T00:37:46;101864.63;;;7.82;91.56
64095;BME280;50353;51.420;5.682;2023-02-02T00:40:12;101865.75;;;8.28;89.95
64095;BME280;50353;51.420;5.682;2023-02-02T00:42:37;101872.75;;;8.27;89.62
64095;BME280;50353;51.420;5.682;2023-02-02T00:45:03;101873.25;;;7.87;90.91
64095;BME280;50353;51.420;5.682;2023-02-02T00:47:46;101875.91;;;7.85;90.74
64095;BME280;50353;51.420;5.682;2023-02-02T00:50:14;101871.50;;;8.12;89.66
64095;BME280;50353;51.420;5.682;2023-02-02T00:52:40;101883.06;;;8.08;89.06
64095;BME280;50353;51.420;5.682;2023-02-02T00:55:06;101898.25;;;8.00;89.66
64095;BME280;50353;51.420;5.682;2023-02-02T00:57:32;101885.06;;;8.02;89.65
64095;BME280;50353;51.420;5.682;2023-02-02T00:59:57;101889.44;;;7.74;89.86
64095;BME280;50353;51.420;5.682;2023-02-02T01:02:23;101894.31;;;7.87;90.46
64095;BME280;50353;51.420;5.682;2023-02-02T01:04:48;101893.28;;;7.91;90.71
64095;BME280;50353;51.420;5.682;2023-02-02T01:07:14;101882.94;;;7.85;90.01
64095;BME280;50353;51.420;5.682;2023-02-02T01:09:39;101886.13;;;7.94;88.99
64095;BME280;50353;51.420;5.682;2023-02-02T01:12:04;101882.09;;;8.11;87.27
64095;BME280;50353;51.420;5.682;2023-02-02T01:14:30;101887.16;;;7.90;88.76
64095;BME280;50353;51.420;5.682;2023-02-02T01:16:55;101876.88;;;8.09;87.42
64095;BME280;50353;51.420;5.682;2023-02-02T01:19:20;101884.84;;;8.08;87.64
64095;BME280;50353;51.420;5.682;2023-02-02T01:21:46;101885.19;;;7.97;87.45
64095;BME280;50353;51.420;5.682;2023-02-02T01:24:11;101897.28;;;8.29;86.91
64095;BME280;50353;51.420;5.682;2023-02-02T01:26:36;101888.47;;;8.31;86.31
64095;BME280;50353;51.420;5.682;2023-02-02T01:29:02;101881.59;;;8.26;87.55
64095;BME280;50353;51.420;5.682;2023-02-02T01:31:27;101885.81;;;8.59;86.00
64095;BME280;50353;51.420;5.682;2023-02-02T01:33:52;101881.53;;;8.55;85.74
64095;BME280;50353;51.420;5.682;2023-02-02T01:36:20;101884.97;;;8.30;86.10
64095;BME280;50353;51.420;5.682;2023-02-02T01:38:46;101893.41;;;8.15;86.51
64095;BME280;50353;51.420;5.682;2023-02-02T01:41:17;101897.94;;;8.36;87.18
64095;BME280;50353;51.420;5.682;2023-02-02T01:46:16;101902.59;;;8.55;86.00
64095;BME280;50353;51.420;5.682;2023-02-02T01:48:46;101892.13;;;8.26;85.92
64095;BME280;50353;51.420;5.682;2023-02-02T01:51:15;101891.25;;;8.26;85.00
64095;BME280;50353;51.420;5.682;2023-02-02T01:53:42;101891.59;;;8.42;86.05
64095;BME280;50353;51.420;5.682;2023-02-02T01:56:10;101878.50;;;8.13;87.31
64095;BME280;50353;51.420;5.682;2023-02-02T01:58:38;101890.44;;;8.51;85.57
64095;BME280;50353;51.420;5.682;2023-02-02T02:01:05;101889.38;;;8.29;86.30
64095;BME280;50353;51.420;5.682;2023-02-02T02:03:32;101892.69;;;8.63;85.41
64095;BME280;50353;51.420;5.682;2023-02-02T02:06:05;101902.53;;;8.58;85.59
64095;BME280;50353;51.420;5.682;2023-02-02T02:09:01;101892.97;;;8.27;85.22
64095;BME280;50353;51.420;5.682;2023-02-02T02:11:28;101884.00;;;8.59;85.62
64095;BME280;50353;51.420;5.682;2023-02-02T02:13:55;101888.53;;;8.29;85.11
64095;BME280;50353;51.420;5.682;2023-02-02T02:19:46;101892.91;;;8.03;86.44
64095;BME280;50353;51.420;5.682;2023-02-02T02:23:06;101882.66;;;8.48;86.71
64095;BME280;50353;51.420;5.682;2023-02-02T02:41:44;101887.78;;;8.52;85.92
64095;BME280;50353;51.420;5.682;2023-02-02T02:44:13;101887.78;;;8.52;85.96
64095;BME280;50353;51.420;5.682;2023-02-02T02:46:40;101891.00;;;8.60;85.81
64095;BME280;50353;51.420;5.682;2023-02-02T02:49:08;101886.72;;;8.58;85.04
64095;BME280;50353;51.420;5.682;2023-02-02T02:51:49;101892.56;;;8.12;86.03
64095;BME280;50353;51.420;5.682;2023-02-02T02:54:18;101891.25;;;8.26;86.72
64095;BME280;50353;51.420;5.682;2023-02-02T02:57:12;101897.47;;;8.23;86.88
64095;BME280;50353;51.420;5.682;2023-02-02T03:07:36;101906.81;;;8.07;87.01
64095;BME280;50353;51.420;5.682;2023-02-02T03:10:04;101900.47;;;8.39;87.43
64095;BME280;50353;51.420;5.682;2023-02-02T03:12:31;101892.31;;;8.20;88.01
64095;BME280;50353;51.420;5.682;2023-02-02T03:14:57;101898.16;;;8.03;86.98
64095;BME280;50353;51.420;5.682;2023-02-02T03:17:22;101889.16;;;8.37;87.25
64095;BME280;50353;51.420;5.682;2023-02-02T03:19:48;101894.91;;;7.95;86.72
64095;BME280;50353;51.420;5.682;2023-02-02T03:22:13;101888.03;;;7.91;88.84
64095;BME280;50353;51.420;5.682;2023-02-02T03:24:38;101897.09;;;8.09;87.58
64095;BME280;50353;51.420;5.682;2023-02-02T03:27:03;101887.88;;;8.49;86.52
64095;BME280;50353;51.420;5.682;2023-02-02T03:29:29;101888.25;;;8.11;87.83
64095;BME280;50353;51.420;5.682;2023-02-02T03:31:54;101891.84;;;8.09;88.68
64095;BME280;50353;51.420;5.682;2023-02-02T03:34:19;101890.75;;;8.41;86.93
64095;BME280;50353;51.420;5.682;2023-02-02T03:36:45;101882.78;;;8.43;86.28
64095;BME280;50353;51.420;5.682;2023-02-02T03:39:10;101881.69;;;8.23;86.95
64095;BME280;50353;51.420;5.682;2023-02-02T03:41:35;101879.94;;;8.24;85.93
64095;BME280;50353;51.420;5.682;2023-02-02T03:44:01;101884.66;;;8.39;86.59
64095;BME280;50353;51.420;5.682;2023-02-02T03:46:26;101879.91;;;8.51;86.00
64095;BME280;50353;51.420;5.682;2023-02-02T03:48:51;101884.66;;;8.66;85.94
64095;BME280;50353;51.420;5.682;2023-02-02T03:51:17;101892.34;;;8.47;85.97
64095;BME280;50353;51.420;5.682;2023-02-02T03:53:42;101896.34;;;8.32;86.57
64095;BME280;50353;51.420;5.682;2023-02-02T03:56:14;101890.69;;;8.43;85.45
64095;BME280;50353;51.420;5.682;2023-02-02T03:58:40;101899.91;;;8.03;87.20
64095;BME280;50353;51.420;5.682;2023-02-02T04:01:07;101908.81;;;7.99;87.70
64095;BME280;50353;51.420;5.682;2023-02-02T04:03:32;101908.19;;;8.19;87.81
64095;BME280;50353;51.420;5.682;2023-02-02T04:05:58;101904.63;;;7.93;87.39
64095;BME280;50353;51.420;5.682;2023-02-02T04:08:23;101911.41;;;8.00;88.17
64095;BME280;50353;51.420;5.682;2023-02-02T04:10:49;101910.72;;;8.22;87.64
64095;BME280;50353;51.420;5.682;2023-02-02T04:13:14;101908.25;;;8.17;86.78
64095;BME280;50353;51.420;5.682;2023-02-02T04:15:39;101903.94;;;8.41;86.90
64095;BME280;50353;51.420;5.682;2023-02-02T04:18:05;101901.78;;;8.26;86.63
64095;BME280;50353;51.420;5.682;2023-02-02T04:20:30;101904.09;;;8.10;86.93
64095;BME280;50353;51.420;5.682;2023-02-02T04:22:55;101909.50;;;8.32;87.36
64095;BME280;50353;51.420;5.682;2023-02-02T04:25:21;101906.34;;;7.94;87.20
64095;BME280;50353;51.420;5.682;2023-02-02T04:27:46;101909.38;;;8.08;87.92
64095;BME280;50353;51.420;5.682;2023-02-02T04:30:11;101911.25;;;8.32;87.26
64095;BME280;50353;51.420;5.682;2023-02-02T04:32:37;101916.91;;;8.21;86.60
64095;BME280;50353;51.420;5.682;2023-02-02T04:35:03;101932.56;;;8.25;87.34
64095;BME280;50353;51.420;5.682;2023-02-02T04:37:30;101928.25;;;8.23;86.38
64095;BME280;50353;51.420;5.682;2023-02-02T04:39:56;101921.16;;;8.25;86.30
64095;BME280;50353;51.420;5.682;2023-02-02T04:42:21;101932.94;;;8.13;87.22
64095;BME280;50353;51.420;5.682;2023-02-02T04:44:46;101933.91;;;8.10;87.48
64095;BME280;50353;51.420;5.682;2023-02-02T04:47:12;101939.81;;;7.90;88.33
64095;BME280;50353;51.420;5.682;2023-02-02T04:49:37;101938.50;;;8.04;88.34
64095;BME280;50353;51.420;5.682;2023-02-02T04:52:02;101933.91;;;8.10;87.47
64095;BME280;50353;51.420;5.682;2023-02-02T04:54:28;101935.44;;;8.18;87.81
64095;BME280;50353;51.420;5.682;2023-02-02T04:56:53;101937.34;;;8.12;86.66
64095;BME280;50353;51.420;5.682;2023-02-02T04:59:18;101929.44;;;8.39;86.98
64095;BME280;50353;51.420;5.682;2023-02-02T05:01:43;101928.91;;;8.29;85.75
64095;BME280;50353;51.420;5.682;2023-02-02T05:04:10;101929.91;;;8.54;86.80
64095;BME280;50353;51.420;5.682;2023-02-02T05:06:35;101924.09;;;8.16;86.99
64095;BME280;50353;51.420;5.682;2023-02-02T05:09:01;101923.59;;;8.58;86.17
64095;BME280;50353;51.420;5.682;2023-02-02T05:11:26;101927.72;;;8.38;86.45
64095;BME280;50353;51.420;5.682;2023-02-02T05:13:53;101925.19;;;8.35;86.12
64095;BME280;50353;51.420;5.682;2023-02-02T05:16:19;101922.72;;;8.57;86.09
64095;BME280;50353;51.420;5.682;2023-02-02T05:18:53;101920.00;;;8.60;85.07
64095;BME280;50353;51.420;5.682;2023-02-02T05:21:19;101936.47;;;8.67;85.20
64095;BME280;50353;51.420;5.682;2023-02-02T05:23:45;101935.72;;;8.08;86.40
64095;BME280;50353;51.420;5.682;2023-02-02T05:26:14;101941.91;;;8.07;87.91
64095;BME280;50353;51.420;5.682;2023-02-02T05:28:40;101949.81;;;8.07;87.63
64095;BME280;50353;51.420;5.682;2023-02-02T05:31:07;101945.28;;;8.11;86.90
64095;BME280;50353;51.420;5.682;2023-02-02T05:33:33;101947.59;;;8.22;88.10
64095;BME280;50353;51.420;5.682;2023-02-02T05:35:58;101949.44;;;8.46;87.36
64095;BME280;50353;51.420;5.682;2023-02-02T05:38:23;101945.66;;;8.27;86.84
64095;BME280;50353;51.420;5.682;2023-02-02T05:40:48;101935.09;;;8.55;87.04
64095;BME280;50353;51.420;5.682;2023-02-02T05:43:14;101932.91;;;8.41;87.45
64095;BME280;50353;51.420;5.682;2023-02-02T05:45:39;101940.63;;;8.48;87.33
64095;BME280;50353;51.420;5.682;2023-02-02T05:48:05;101934.16;;;8.58;86.42
64095;BME280;50353;51.420;5.682;2023-02-02T05:50:30;101936.44;;;8.40;87.11
64095;BME280;50353;51.420;5.682;2023-02-02T05:52:57;101938.44;;;8.34;87.49
64095;BME280;50353;51.420;5.682;2023-02-02T05:55:23;101940.00;;;8.39;87.46
64095;BME280;50353;51.420;5.682;2023-02-02T05:57:48;101937.09;;;8.49;87.36
64095;BME280;50353;51.420;5.682;2023-02-02T06:00:13;101943.16;;;8.51;87.16
64095;BME280;50353;51.420;5.682;2023-02-02T06:02:39;101939.25;;;8.36;88.81
64095;BME280;50353;51.420;5.682;2023-02-02T06:05:04;101940.03;;;8.38;87.70
64095;BME280;50353;51.420;5.682;2023-02-02T06:07:30;101945.00;;;8.49;87.23
64095;BME280;50353;51.420;5.682;2023-02-02T06:09:55;101957.88;;;8.58;86.88
64095;BME280;50353;51.420;5.682;2023-02-02T06:12:20;101948.28;;;8.55;86.27
64095;BME280;50353;51.420;5.682;2023-02-02T06:14:46;101954.13;;;8.10;89.47
64095;BME280;50353;51.420;5.682;2023-02-02T06:17:11;101962.25;;;8.31;88.84
64095;BME280;50353;51.420;5.682;2023-02-02T06:19:36;101957.22;;;8.23;88.88
64095;BME280;50353;51.420;5.682;2023-02-02T06:22:02;101945.16;;;8.42;88.11
64095;BME280;50353;51.420;5.682;2023-02-02T06:24:27;101927.66;;;8.41;87.22
64095;BME280;50353;51.420;5.682;2023-02-02T06:26:52;101940.81;;;8.68;87.00
64095;BME280;50353;51.420;5.682;2023-02-02T06:29:18;101955.25;;;8.01;88.96
64095;BME280;50353;51.420;5.682;2023-02-02T06:31:43;101953.50;;;8.02;88.93
64095;BME280;50353;51.420;5.682;2023-02-02T06:34:09;101958.72;;;8.03;89.53
64095;BME280;50353;51.420;5.682;2023-02-02T06:36:37;101966.22;;;8.44;88.78
64095;BME280;50353;51.420;5.682;2023-02-02T06:39:02;101966.06;;;8.49;88.35
64095;BME280;50353;51.420;5.682;2023-02-02T06:41:29;101973.97;;;8.20;87.62
64095;BME280;50353;51.420;5.682;2023-02-02T06:43:55;101970.09;;;8.32;88.89
64095;BME280;50353;51.420;5.682;2023-02-02T06:46:21;101968.84;;;8.44;87.26
64095;BME280;50353;51.420;5.682;2023-02-02T06:48:46;101958.31;;;8.44;87.54
64095;BME280;50353;51.420;5.682;2023-02-02T06:51:11;101958.78;;;8.28;88.95
64095;BME280;50353;51.420;5.682;2023-02-02T06:53:37;101958.66;;;8.33;88.80
64095;BME280;50353;51.420;5.682;2023-02-02T06:56:05;101964.53;;;8.41;86.67
64095;BME280;50353;51.420;5.682;2023-02-02T06:58:31;101966.28;;;8.14;89.33
64095;BME280;50353;51.420;5.682;2023-02-02T07:01:04;101980.47;;;8.10;87.76
64095;BME280;50353;51.420;5.682;2023-02-02T07:03:31;101981.97;;;8.17;88.65
64095;BME280;50353;51.420;5.682;2023-02-02T07:05:56;101987.16;;;8.20;89.18
64095;BME280;50353;51.420;5.682;2023-02-02T07:08:22;101986.19;;;7.94;88.82
64095;BME280;50353;51.420;5.682;2023-02-02T07:10:47;101987.88;;;7.67;90.50
64095;BME280;50353;51.420;5.682;2023-02-02T07:13:12;101990.06;;;8.11;89.96
64095;BME280;50353;51.420;5.682;2023-02-02T07:15:38;102001.41;;;7.85;90.06
64095;BME280;50353;51.420;5.682;2023-02-02T07:18:04;101993.47;;;8.15;90.00
64095;BME280;50353;51.420;5.682;2023-02-02T07:20:29;101989.94;;;8.42;88.89
64095;BME280;50353;51.420;5.682;2023-02-02T07:22:55;101997.41;;;8.29;89.15
64095;BME280;50353;51.420;5.682;2023-02-02T07:25:20;102005.13;;;8.34;88.46
64095;BME280;50353;51.420;5.682;2023-02-02T07:27:46;102000.34;;;8.49;88.69
64095;BME280;50353;51.420;5.682;2023-02-02T07:30:12;102000.47;;;8.42;87.64
64095;BME280;50353;51.420;5.682;2023-02-02T07:32:38;102001.47;;;8.11;89.79
64095;BME280;50353;51.420;5.682;2023-02-02T07:35:03;102000.88;;;8.30;89.52
64095;BME280;50353;51.420;5.682;2023-02-02T07:37:29;102000.81;;;8.32;88.76
64095;BME280;50353;51.420;5.682;2023-02-02T07:39:54;102001.94;;;8.24;89.46
64095;BME280;50353;51.420;5.682;2023-02-02T07:42:19;101996.72;;;7.94;89.19
64095;BME280;50353;51.420;5.682;2023-02-02T07:44:44;101989.66;;;8.25;88.79
64095;BME280;50353;51.420;5.682;2023-02-02T07:47:10;101996.25;;;8.10;88.86
64095;BME280;50353;51.420;5.682;2023-02-02T07:49:35;102003.88;;;7.89;90.25
64095;BME280;50353;51.420;5.682;2023-02-02T07:52:00;102003.53;;;8.02;90.77
64095;BME280;50353;51.420;5.682;2023-02-02T07:54:25;102011.38;;;8.32;88.90
64095;BME280;50353;51.420;5.682;2023-02-02T07:56:51;102007.78;;;8.34;89.89
64095;BME280;50353;51.420;5.682;2023-02-02T07:59:16;102011.13;;;8.39;89.71
64095;BME280;50353;51.420;5.682;2023-02-02T08:01:41;102017.53;;;8.32;89.31
64095;BME280;50353;51.420;5.682;2023-02-02T08:04:07;102008.13;;;8.52;89.51
64095;BME280;50353;51.420;5.682;2023-02-02T08:06:35;102016.50;;;8.36;89.12
64095;BME280;50353;51.420;5.682;2023-02-02T08:09:03;102026.81;;;8.44;89.71
64095;BME280;50353;51.420;5.682;2023-02-02T08:11:29;102029.09;;;7.98;92.08
64095;BME280;50353;51.420;5.682;2023-02-02T08:13:58;102034.72;;;8.44;90.47
64095;BME280;50353;51.420;5.682;2023-02-02T08:16:24;102028.47;;;8.48;90.47
64095;BME280;50353;51.420;5.682;2023-02-02T08:18:50;102032.50;;;8.30;91.16
64095;BME280;50353;51.420;5.682;2023-02-02T08:21:16;102035.56;;;8.16;91.72
64095;BME280;50353;51.420;5.682;2023-02-02T08:23:42;102042.03;;;8.34;90.57
64095;BME280;50353;51.420;5.682;2023-02-02T08:26:13;102028.25;;;8.54;89.71
64095;BME280;50353;51.420;5.682;2023-02-02T08:28:40;102027.78;;;8.41;88.48
64095;BME280;50353;51.420;5.682;2023-02-02T08:31:15;102028.72;;;8.39;89.92
64095;BME280;50353;51.420;5.682;2023-02-02T08:33:42;102033.88;;;8.13;90.61
64095;BME280;50353;51.420;5.682;2023-02-02T08:36:11;102036.72;;;8.36;90.36
64095;BME280;50353;51.420;5.682;2023-02-02T08:38:36;102037.13;;;8.22;89.48
64095;BME280;50353;51.420;5.682;2023-02-02T08:41:06;102047.00;;;8.45;89.85
64095;BME280;50353;51.420;5.682;2023-02-02T08:43:32;102043.97;;;8.29;90.71
64095;BME280;50353;51.420;5.682;2023-02-02T08:45:58;102051.75;;;8.32;89.76
64095;BME280;50353;51.420;5.682;2023-02-02T08:48:23;102052.38;;;8.40;88.85
64095;BME280;50353;51.420;5.682;2023-02-02T08:50:55;102052.03;;;8.23;89.46
64095;BME280;50353;51.420;5.682;2023-02-02T08:53:21;102063.09;;;8.36;89.79
64095;BME280;50353;51.420;5.682;2023-02-02T08:55:47;102056.78;;;8.68;88.65
64095;BME280;50353;51.420;5.682;2023-02-02T08:58:13;102079.84;;;8.33;89.33
64095;BME280;50353;51.420;5.682;2023-02-02T09:00:38;102085.75;;;8.11;89.53
64095;BME280;50353;51.420;5.682;2023-02-02T09:03:04;102086.13;;;8.27;89.97
64095;BME280;50353;51.420;5.682;2023-02-02T09:05:29;102095.25;;;8.47;89.44
64095;BME280;50353;51.420;5.682;2023-02-02T09:07:55;102094.09;;;8.26;90.34
64095;BME280;50353;51.420;5.682;2023-02-02T09:10:21;102107.47;;;8.20;89.72
64095;BME280;50353;51.420;5.682;2023-02-02T09:12:46;102102.41;;;8.42;89.00
64095;BME280;50353;51.420;5.682;2023-02-02T09:15:11;102102.88;;;8.26;89.36
64095;BME280;50353;51.420;5.682;2023-02-02T09:17:37;102110.97;;;8.50;88.91
64095;BME280;50353;51.420;5.682;2023-02-02T09:20:03;102113.47;;;8.25;88.25
64095;BME280;50353;51.420;5.682;2023-02-02T09:22:29;102133.78;;;8.20;88.38
64095;BME280;50353;51.420;5.682;2023-02-02T09:24:54;102130.31;;;8.49;87.91
64095;BME280;50353;51.420;5.682;2023-02-02T09:27:19;102135.53;;;8.21;89.19
64095;BME280;50353;51.420;5.682;2023-02-02T09:29:45;102132.66;;;8.58;88.54
64095;BME280;50353;51.420;5.682;2023-02-02T09:32:10;102122.13;;;8.58;88.04
64095;BME280;50353;51.420;5.682;2023-02-02T09:34:35;102122.00;;;8.63;86.94
64095;BME280;50353;51.420;5.682;2023-02-02T09:37:01;102139.00;;;8.53;86.71
64095;BME280;50353;51.420;5.682;2023-02-02T09:39:26;102136.31;;;8.83;87.29
64095;BME280;50353;51.420;5.682;2023-02-02T09:42:03;102137.31;;;8.78;87.23
64095;BME280;50353;51.420;5.682;2023-02-02T09:47:52;102153.69;;;8.30;87.01
64095;BME280;50353;51.420;5.682;2023-02-02T09:50:39;102163.16;;;8.37;87.51
64095;BME280;50353;51.420;5.682;2023-02-02T09:55:43;102164.69;;;8.74;87.40
64095;BME280;50353;51.420;5.682;2023-02-02T09:58:14;102163.34;;;8.61;87.37
64095;BME280;50353;51.420;5.682;2023-02-02T10:00:52;102171.69;;;8.75;86.55
64095;BME280;50353;51.420;5.682;2023-02-02T10:03:30;102183.63;;;8.59;87.11
64095;BME280;50353;51.420;5.682;2023-02-02T10:08:36;102186.25;;;8.59;87.47
64095;BME280;50353;51.420;5.682;2023-02-02T10:13:51;102180.31;;;8.80;86.07
64095;BME280;50353;51.420;5.682;2023-02-02T10:16:18;102183.91;;;9.06;86.06
64095;BME280;50353;51.420;5.682;2023-02-02T10:18:55;102183.81;;;8.81;84.99
64095;BME280;50353;51.420;5.682;2023-02-02T10:21:33;102186.38;;;8.54;86.58
64095;BME280;50353;51.420;5.682;2023-02-02T10:24:02;102187.34;;;8.80;87.20
64095;BME280;50353;51.420;5.682;2023-02-02T10:26:41;102187.75;;;8.96;86.78
64095;BME280;50353;51.420;5.682;2023-02-02T10:29:18;102177.88;;;9.03;85.91
64095;BME280;50353;51.420;5.682;2023-02-02T10:39:44;102189.25;;;9.32;85.97
64095;BME280;50353;51.420;5.682;2023-02-02T10:45:20;102182.06;;;9.35;85.99
64095;BME280;50353;51.420;5.682;2023-02-02T10:47:46;102187.88;;;8.91;87.19
64095;BME280;50353;51.420;5.682;2023-02-02T10:52:37;102187.16;;;9.41;85.65
64095;BME280;50353;51.420;5.682;2023-02-02T11:00:36;102194.03;;;9.19;85.87
64095;BME280;50353;51.420;5.682;2023-02-02T11:03:04;102200.53;;;9.35;85.66
64095;BME280;50353;51.420;5.682;2023-02-02T11:05:31;102197.63;;;9.18;85.93
64095;BME280;50353;51.420;5.682;2023-02-02T11:10:42;102208.50;;;9.34;84.98
64095;BME280;50353;51.420;5.682;2023-02-02T11:13:20;102196.34;;;9.01;85.44
64095;BME280;50353;51.420;5.682;2023-02-02T11:15:47;102210.94;;;9.13;84.98
64095;BME280;50353;51.420;5.682;2023-02-02T11:18:27;102208.56;;;9.32;85.10
64095;BME280;50353;51.420;5.682;2023-02-02T11:20:53;102216.63;;;9.54;84.89
64095;BME280;50353;51.420;5.682;2023-02-02T11:23:19;102201.16;;;9.17;83.93
64095;BME280;50353;51.420;5.682;2023-02-02T11:25:45;102207.63;;;9.06;84.63
64095;BME280;50353;51.420;5.682;2023-02-02T11:28:24;102215.22;;;9.44;85.47
64095;BME280;50353;51.420;5.682;2023-02-02T11:30:54;102202.03;;;9.69;84.04
64095;BME280;50353;51.420;5.682;2023-02-02T11:33:30;102192.19;;;9.74;83.67
64095;BME280;50353;51.420;5.682;2023-02-02T11:35:58;102194.66;;;9.54;83.53
64095;BME280;50353;51.420;5.682;2023-02-02T11:38:24;102191.81;;;9.33;84.42
64095;BME280;50353;51.420;5.682;2023-02-02T11:46:04;102206.66;;;9.64;84.94
64095;BME280;50353;51.420;5.682;2023-02-02T11:48:47;102197.69;;;9.14;84.20
64095;BME280;50353;51.420;5.682;2023-02-02T11:51:21;102199.81;;;9.32;84.70
64095;BME280;50353;51.420;5.682;2023-02-02T11:53:48;102191.22;;;9.52;84.93
64095;BME280;50353;51.420;5.682;2023-02-02T11:56:22;102187.88;;;9.20;85.17
64095;BME280;50353;51.420;5.682;2023-02-02T11:58:50;102189.97;;;9.35;83.43
64095;BME280;50353;51.420;5.682;2023-02-02T12:01:28;102185.94;;;9.52;83.94
64095;BME280;50353;51.420;5.682;2023-02-02T12:03:58;102179.41;;;9.62;82.40
64095;BME280;50353;51.420;5.682;2023-02-02T12:08:59;102185.59;;;9.36;82.55
64095;BME280;50353;51.420;5.682;2023-02-02T12:14:30;102182.94;;;8.80;84.19
64095;BME280;50353;51.420;5.682;2023-02-02T12:27:44;102171.91;;;9.50;83.42
64095;BME280;50353;51.420;5.682;2023-02-02T12:33:12;102178.72;;;9.82;82.91
64095;BME280;50353;51.420;5.682;2023-02-02T12:36:27;102169.75;;;9.61;83.91
64095;BME280;50353;51.420;5.682;2023-02-02T12:38:40;102163.94;;;9.51;84.57
64095;BME280;50353;51.420;5.682;2023-02-02T12:47:07;102180.66;;;9.77;81.88
64095;BME280;50353;51.420;5.682;2023-02-02T12:50:00;102161.91;;;9.85;83.23
64095;BME280;50353;51.420;5.682;2023-02-02T12:52:36;102149.53;;;9.61;81.27
64095;BME280;50353;51.420;5.682;2023-02-02T12:58:49;102164.66;;;9.56;83.29
64095;BME280;50353;51.420;5.682;2023-02-02T13:09:16;102162.88;;;9.57;82.54
64095;BME280;50353;51.420;5.682;2023-02-02T13:11:50;102160.41;;;9.52;82.46
64095;BME280;50353;51.420;5.682;2023-02-02T13:14:23;102159.59;;;9.75;81.89
64095;BME280;50353;51.420;5.682;2023-02-02T13:16:53;102156.88;;;10.02;82.66
64095;BME280;50353;51.420;5.682;2023-02-02T13:19:30;102163.78;;;10.06;82.84
64095;BME280;50353;51.420;5.682;2023-02-02T13:21:57;102169.59;;;9.40;82.74
64095;BME280;50353;51.420;5.682;2023-02-02T13:24:30;102152.75;;;9.70;83.10
64095;BME280;50353;51.420;5.682;2023-02-02T13:27:00;102161.00;;;9.60;82.72
64095;BME280;50353;51.420;5.682;2023-02-02T13:32:06;102147.88;;;9.82;83.62
64095;BME280;50353;51.420;5.682;2023-02-02T13:34:55;102170.06;;;9.53;83.47
64095;BME280;50353;51.420;5.682;2023-02-02T13:43:26;102160.59;;;9.96;83.91
64095;BME280;50353;51.420;5.682;2023-02-02T13:46:28;102148.72;;;9.85;84.46
64095;BME280;50353;51.420;5.682;2023-02-02T13:51:48;102160.63;;;9.71;82.73
64095;BME280;50353;51.420;5.682;2023-02-02T14:02:39;102157.53;;;9.84;83.96
64095;BME280;50353;51.420;5.682;2023-02-02T14:05:07;102165.19;;;9.66;83.24
64095;BME280;50353;51.420;5.682;2023-02-02T14:07:45;102157.59;;;9.57;86.47
64095;BME280;50353;51.420;5.682;2023-02-02T14:10:24;102167.91;;;9.90;85.50
64095;BME280;50353;51.420;5.682;2023-02-02T14:12:51;102166.31;;;9.84;85.17
64095;BME280;50353;51.420;5.682;2023-02-02T14:15:17;102175.19;;;9.83;85.58
64095;BME280;50353;51.420;5.682;2023-02-02T14:20:40;102165.31;;;9.63;86.96
64095;BME280;50353;51.420;5.682;2023-02-02T14:26:09;102180.47;;;9.83;87.22
64095;BME280;50353;51.420;5.682;2023-02-02T14:28:42;102171.50;;;9.87;87.01
64095;BME280;50353;51.420;5.682;2023-02-02T14:31:40;102171.13;;;9.73;86.23
64095;BME280;50353;51.420;5.682;2023-02-02T14:37:30;102182.66;;;9.70;87.78
64095;BME280;50353;51.420;5.682;2023-02-02T14:45:38;102191.03;;;9.83;87.01
64095;BME280;50353;51.420;5.682;2023-02-02T14:48:10;102188.91;;;9.93;88.05
64095;BME280;50353;51.420;5.682;2023-02-02T14:50:50;102188.91;;;9.68;89.66
64095;BME280;50353;51.420;5.682;2023-02-02T14:53:29;102190.50;;;9.46;92.21
64095;BME280;50353;51.420;5.682;2023-02-02T15:14:55;102213.84;;;9.32;97.37
64095;BME280;50353;51.420;5.682;2023-02-02T15:23:04;102212.09;;;9.31;96.79
64095;BME280;50353;51.420;5.682;2023-02-02T15:25:42;102220.19;;;9.26;97.85
64095;BME280;50353;51.420;5.682;2023-02-02T15:28:25;102210.25;;;9.35;96.59
64095;BME280;50353;51.420;5.682;2023-02-02T15:30:58;102213.66;;;9.38;96.85
64095;BME280;50353;51.420;5.682;2023-02-02T15:33:31;102222.88;;;9.25;97.50
64095;BME280;50353;51.420;5.682;2023-02-02T15:36:03;102211.94;;;9.37;96.78
64095;BME280;50353;51.420;5.682;2023-02-02T15:38:33;102214.50;;;9.39;96.82
64095;BME280;50353;51.420;5.682;2023-02-02T15:41:15;102209.94;;;9.44;95.84
64095;BME280;50353;51.420;5.682;2023-02-02T15:43:42;102224.34;;;9.34;97.67
64095;BME280;50353;51.420;5.682;2023-02-02T15:46:32;102214.91;;;9.26;96.86
64095;BME280;50353;51.420;5.682;2023-02-02T15:49:32;102223.09;;;9.45;96.14
64095;BME280;50353;51.420;5.682;2023-02-02T15:52:02;102230.38;;;9.10;97.86